• Join FlightAware (Why Join?)
  • Login
  • US Flag 
07:11PM EDT


 

Airport Tracker/Info


-or-


 

Live Flight TrackerFlight Track Log ✈ FDX584 ✈ 14/Apr/2013 ✈ KMEM - KMCI

Flight Track Log - Related Links

Times and Time Zones

All times are in EDT time to prevent confusion due to time zone crossing. See the FDX584 flight status page for this flight to view local times or setup timezone preferences in your user account.

Time Position Orientation Groundspeed Altitude Reporting Facility
EDT Latitude Longitude Course Direction KTS MPH feet Rate Location/Type
05:53PM 35.0333 -89.9833 180° South 135 155 1,200  Level KMEM
05:54PM 34.9833 -89.9833 180° South 195 224 2,900 2,700 Climbing KMEM
05:55PM 34.9333 -90.0500 228° Southwest 271 312 6,600 3,240 Climbing KMEM
05:57PM 34.9947 -90.1922 298° West 295 339 11,800 3,000 Climbing Memphis Center
05:58PM 35.1033 -90.2047 355° North 324 373 14,800 7,380 Climbing Memphis Center
06:00PM 35.3367 -90.1561 10° North 414 476 34,000 2,700 Climbing Memphis Center
06:01PM 35.4411 -90.2269 331° Northwest 402 463 23,000 -5,220 Descending Memphis Center
06:02PM 35.5122 -90.3417 307° West 402 463 23,600 1,440 Climbing Memphis Center
06:03PM 35.5850 -90.4542 309° West 421 484 25,900 2,220 Climbing Memphis Center
06:04PM 35.6642 -90.5767 309° West 441 507 28,100 2,280 Climbing Memphis Center
06:05PM 35.7350 -90.6972 306° West 448 516 30,500 2,100 Climbing Memphis Center
06:06PM 35.7992 -90.8022 307° West 443 510 32,300 1,740 Climbing Memphis Center
06:07PM 35.8739 -90.9206 308° West 438 504 34,000 840 Climbing Memphis Center
06:08PM 35.9544 -91.0289 313° West 438 504 34,000  Level Memphis Center
06:09PM 36.0353 -91.1297 315° West 427 491 34,000  Level Memphis Center
06:10PM 36.1203 -91.2281 317° Northwest 421 484 34,000  Level Memphis Center
06:11PM 36.2008 -91.3292 315° West 414 476 34,000  Level Memphis Center
06:12PM 36.2853 -91.4331 315° West 414 476 34,000  Level Memphis Center
06:13PM 36.3719 -91.5375 316° Northwest 414 476 34,000  Level Memphis Center
06:14PM 36.4564 -91.6419 315° West 419 482 34,000  Level Memphis Center
06:15PM 36.5531 -91.7597 316° Northwest 426 490 34,000 -780 Level Memphis Center
06:20PM 37.0160 -92.3370 316° Northwest 34,000 -840 Level FlightAware
06:21PM 37.0510 -92.3810 315° West 34,000 -960 Level FlightAware
06:23PM 37.2230 -92.5990 315° West 34,000 -960 Level FlightAware
06:25PM 37.3620 -92.7760 315° West 34,000 -1,020 Level FlightAware
06:31PM 37.7670 -93.2990 314° West 34,000 -1,140 Level FlightAware
06:32PM 37.8630 -93.4250 314° West 33,500 -1,380 Descending FlightAware
06:35PM 38.1500 -93.7750 316° Northwest 29,800 -1,440 Descending FlightAware
06:36PM 38.2360 -93.8310 333° Northwest 29,000 -1,440 Descending FlightAware
06:37PM 38.3100 -93.8700 338° Northwest 28,100 -1,500 Descending FlightAware
06:37PM 38.3860 -93.9130 336° Northwest 26,400 -1,500 Descending FlightAware
06:38PM 38.4500 -93.9500 336° Northwest 24,900 -1,440 Descending FlightAware
06:39PM 38.5400 -94.0010 336° Northwest 22,900 -1,380 Descending FlightAware
06:39PM 38.6170 -94.0450 336° Northwest 21,100 -1,320 Descending FlightAware
06:40PM 38.6830 -94.0850 335° Northwest 19,500 -1,260 Descending FlightAware
06:41PM 38.7400 -94.1430 322° Northwest 18,300 -1,260 Descending FlightAware
06:41PM 38.8030 -94.2120 320° Northwest 16,800 -1,200 Descending FlightAware
06:42PM 38.8540 -94.2670 320° Northwest 15,600 -1,140 Descending FlightAware
06:43PM 38.9060 -94.3230 320° Northwest 15,400 -1,140 Descending FlightAware
06:44PM 38.9650 -94.3830 322° Northwest 15,400 -1,140 Level FlightAware
06:44PM 38.9920 -94.3940 342° North 15,400 -1,260 Level FlightAware
06:44PM 39.0620 -94.4110 349° North 15,400 -1,260 Level FlightAware
06:45PM 39.1370 -94.4270 351° North 15,200 -1,380 Descending FlightAware
06:46PM 39.1940 -94.4400 350° North 14,700 -1,440 Descending FlightAware
06:47PM 39.2470 -94.4520 350° North 13,500 -1,500 Descending FlightAware
06:47PM 39.2920 -94.4600 352° North 12,200 -1,500 Descending FlightAware
06:48PM 39.3270 -94.4570 North 11,500 -1,440 Descending FlightAware
06:48PM 39.3790 -94.4510 North 10,400 -1,380 Descending FlightAware
06:49PM 39.4090 -94.4470 North 9,300 -1,380 Descending FlightAware
06:49PM 39.4260 -94.4460 North 8,800 -1,260 Descending FlightAware
06:49PM 39.4580 -94.4430 North 7,900 -1,200 Descending FlightAware
06:50PM 39.4930 -94.4420 North 7,000 -1,140 Descending FlightAware
06:50PM 39.5160 -94.4570 333° Northwest 6,100 -1,080 Descending FlightAware
06:50PM 39.5190 -94.4670 291° West 5,800 -900 Descending FlightAware
06:52PM 39.5110 -94.5410 262° West 5,400 -840 Descending FlightAware
06:52PM 39.5080 -94.5510 249° West 5,400 -1,200 Level FlightAware
06:53PM 39.4730 -94.6080 232° Southwest 4,000 -1,320 Descending FlightAware
06:54PM 39.4544 -94.6303 232° Southwest 170 196 3,100 -600 Descending Kansas City Center
06:55PM 39.4214 -94.6672 221° Southwest 166 191 3,000 -480 Descending Kansas City Center
06:56PM 39.3803 -94.6989 211° Southwest 155 178 2,200 -720 Descending Kansas City Center
06:57PM 39.3492 -94.7133 200° South 129 148 1,500 -660 Descending Kansas City Center
06:58PM 39.3094 -94.7258 194° South 133 153 900 -600 Descending Kansas City Center